EBBREKBI

Guest
Details From EBBR - Brussels Airport
To EKBI - Billund
Flight Number -
Tags generated
Created
Modified
Stats Distance 341 nm / 632 km
Max Altitude 32,800 ft / 9,997 m
Waypoints 5
Social Downloads 1
Likes 0
Share VATSIM

Download

Looking for another format? Having issues loading an existing format? Contact us
Advertisement - Login to hide

Notes

Basic altitude profile: - Ascent Rate: 2500ft/min - Ascent Speed: 250kts - Cruise Altitude: 35000ft - Cruise Speed: 420kts - Descent Rate: 1500ft/min - Descent Speed: 250kts Options: - Use NATs: yes - Use PACOTS: yes - Use low airways: yes - Use high airways: yes

Route

EBBR RUPIN UZ709 LANUL EKBI

ID Type Via Altitude (ft/m) Position (lat/lon) Dist (leg/tot) Name
O EBBR APT - 0 / 0 50.89995 / 4.49281 - / 0 nm Brussels Airport
RUPIN FIX - 12,000 / 3,658 51.46050 / 4.54052 33 / 33 nm
KUVEK FIX UZ709 (AWY-HI) 32,800 / 9,997 53.73472 / 6.50000 154 / 187 nm
LANUL FIX UZ709 (AWY-HI) 14,200 / 4,328 55.00000 / 7.69722 86 / 274 nm
O EKBI APT - 0 / 0 55.73618 / 9.15206 66 / 341 nm Billund

Altitude Profile

Advertisement - Login to hide

Weather


0- 5 10 15 20 25 30 35+ Temperature / °C

Clouds and Precipitation
Forecast for 2018-12-15 18:00 UTC. Updated 4 hours ago

Ground ~20,000 ft ~40,000 ft Winds

EBBR

Details ICAO EBBR (BRU)
Name Brussels Airport
Region Belgium
Timezone Europe/Brussels (UTC+1.0)
Stats Elevation 184 ft / 56 m (AMSL)
Location 50.900000° 4.492780°
Runways 3
Magnetic Variation 1.261° E

METAR

EBBR 151920Z 15013G23KT CAVOK 01/M05 Q1013 TEMPO 3500 -SN -FZRA BKN008

Decode

TAF

TAF EBBR 151700Z 1518/1624 14012KT 9999 BKN040 TEMPO 1518/1521 -SN -FZRA BECMG 1520/1522 3500 -SN BKN008 PROB40 TEMPO 1521/1524 16016G28KT 1200 SN BKN002 PROB30 TEMPO 1600/1602 -FZRA BECMG 1602/1604 20010KT 6000 NSW PROB30 1604/1608 0500 FG BKN001 PROB30 TEMPO 1608/1610 4000 SHRA BKN014TCU BECMG 1612/1614 SCT008 BKN014 TEMPO 1616/1620 BKN006

Decode

Departure Runways

ID Width Length Bearing (true/mag) Surface Threshold Overrun Markings Lighting
01 164 ft / 50 m 9,814 ft / 2,991 m 14.39° / 13.12° ASPHALT 148 ft / 45 m 0 ft / 0 m PREC-APP CENTERLINE EDGE THRESHOLD ALSF-II TDZ REIL-OMNI
07L 148 ft / 45 m 11,933 ft / 3,637 m 65.29° / 64.03° ASPHALT 843 ft / 257 m 0 ft / 0 m PREC-APP CENTERLINE EDGE THRESHOLD TDZ REIL-OMNI
07R 148 ft / 45 m 10,550 ft / 3,216 m 69.91° / 68.65° ASPHALT 358 ft / 109 m 0 ft / 0 m PREC-APP CENTERLINE EDGE THRESHOLD REIL-OMNI
19 164 ft / 50 m 9,814 ft / 2,991 m 194.39° / 193.13° ASPHALT 718 ft / 219 m 0 ft / 0 m PREC-APP CENTERLINE EDGE THRESHOLD ALSF-I TDZ REIL-OMNI
25L 148 ft / 45 m 10,550 ft / 3,216 m 249.95° / 248.69° ASPHALT 0 ft / 0 m 0 ft / 0 m PREC-APP CENTERLINE EDGE THRESHOLD ALSF-II TDZ REIL-OMNI
25R 148 ft / 45 m 11,933 ft / 3,637 m 245.33° / 244.07° ASPHALT 981 ft / 299 m 0 ft / 0 m PREC-APP CENTERLINE EDGE THRESHOLD ALSF-II TDZ REIL-OMNI

EKBI

Details ICAO EKBI (BLL)
Name Billund
Region Denmark / Faroe Islands
Timezone Europe/Copenhagen (UTC+1.0)
Stats Elevation 247 ft / 75 m (AMSL)
Location 55.740500° 9.157080°
Runways 1
Magnetic Variation 2.675° E

METAR

EKBI 151920Z AUTO 10009KT 9999 BKN021/// M01/M03 Q1024

Decode

TAF

TAF EKBI 151705Z 1518/1618 12012KT 9999 BKN020= TAF EKAH 151705Z 1518/1618 12010KT 9999 BKN015 TEMPO 1518/1606 4000 -SHRASN BKN008 TEMPO 1606/1618 BKN012

Decode

Destination Runways

ID Width Length Bearing (true/mag) Surface Threshold Overrun Markings Lighting
09 148 ft / 45 m 10,180 ft / 3,103 m 86.84° / 84.17° ASPHALT 492 ft / 150 m 0 ft / 0 m PREC-APP CENTERLINE EDGE THRESHOLD ALSF-I TDZ REIL-OMNI
27 148 ft / 45 m 10,180 ft / 3,103 m 266.88° / 264.21° ASPHALT 492 ft / 150 m 0 ft / 0 m PREC-APP CENTERLINE EDGE THRESHOLD ALSF-II TDZ REIL-OMNI

Approach Navaids

Runway Type Ident Frequency Range Bearing (true/mag) Slope Elevation
09 LOC-ILS BIL 111.70 MHz 18 nm / 33 km 86.85° / 84.18 ° - 247 ft / 75 m (AMSL)
09 GS BIL 111.70 MHz 10 nm / 19 km 87.70° / 85.02 ° 3.00° 247 ft / 75 m (AMSL)
09 MM MM - - 86.85° / 84.17 ° - 247 ft / 75 m (AMSL)
27 DME LEL 110.70 MHz 18 nm / 33 km - - 246 ft / 75 m (AMSL)
27 LOC-ILS LEL 110.70 MHz 18 nm / 33 km 266.86° / 264.18 ° - 247 ft / 75 m (AMSL)
27 GS LEL 110.70 MHz 10 nm / 19 km 267.70° / 265.02 ° 3.00° 247 ft / 75 m (AMSL)
27 OM OM - - 266.85° / 264.17 ° - 247 ft / 75 m (AMSL)
27 MM MM - - 266.85° / 264.17 ° - 247 ft / 75 m (AMSL)

Popular Alternatives